createdAt,value
2018-03-20T00:02:21.452Z,14.40
2018-03-20T00:04:55.312Z,14.70
2018-03-20T00:07:29.063Z,15.30
2018-03-20T00:10:02.768Z,15.70
2018-03-20T00:12:36.354Z,16.20
2018-03-20T00:15:10.821Z,15.60
2018-03-20T00:17:44.378Z,15.80
2018-03-20T00:20:21.531Z,15.40
2018-03-20T00:22:55.773Z,15.30
2018-03-20T00:25:29.394Z,15.20
2018-03-20T00:28:03.983Z,14.80
2018-03-20T00:30:38.346Z,13.60
2018-03-20T00:33:12.152Z,13.50
2018-03-20T00:35:45.970Z,13.20
2018-03-20T00:38:19.597Z,12.60
2018-03-20T00:40:53.414Z,12.40
2018-03-20T00:43:27.273Z,12.40
2018-03-20T00:46:01.108Z,12.40
2018-03-20T00:48:35.986Z,12.40
2018-03-20T00:51:10.538Z,12.40
2018-03-20T00:53:44.250Z,12.50
2018-03-20T00:56:18.496Z,12.40
2018-03-20T00:58:53.073Z,12.60
2018-03-20T01:01:26.916Z,12.50
2018-03-20T01:04:00.824Z,12.10
2018-03-20T01:06:34.525Z,11.90
2018-03-20T01:09:08.405Z,11.90
2018-03-20T01:11:42.106Z,11.80
2018-03-20T01:14:15.846Z,11.50
2018-03-20T01:16:49.520Z,11.40
2018-03-20T01:19:23.321Z,12.70
2018-03-20T01:21:57.056Z,14.70
2018-03-20T01:24:31.704Z,15.70
2018-03-20T01:27:05.751Z,18.90
2018-03-20T01:29:39.365Z,25.00
2018-03-20T01:32:15.037Z,27.80
2018-03-20T01:34:48.718Z,29.80
2018-03-20T01:37:24.659Z,29.10
2018-03-20T01:39:58.337Z,29.20
2018-03-20T01:42:33.529Z,29.00
2018-03-20T01:45:07.224Z,30.00
2018-03-20T01:47:41.709Z,29.60
2018-03-20T01:50:16.533Z,30.30
2018-03-20T01:53:03.163Z,35.00
2018-03-20T01:55:37.978Z,36.50
2018-03-20T01:58:12.550Z,36.40
2018-03-20T02:00:49.047Z,41.50
2018-03-20T02:03:26.349Z,54.10
2018-03-20T02:06:01.349Z,54.10
2018-03-20T02:08:35.629Z,55.20
2018-03-20T02:11:09.840Z,57.30
2018-03-20T02:13:44.744Z,58.10
2018-03-20T02:16:20.362Z,57.20
2018-03-20T02:18:54.056Z,59.40
2018-03-20T02:21:30.262Z,66.60
2018-03-20T02:24:11.348Z,73.20
2018-03-20T02:26:49.023Z,78.30
2018-03-20T02:29:23.348Z,81.60
2018-03-20T02:31:59.405Z,84.50
2018-03-20T02:34:35.360Z,88.70
2018-03-20T02:37:10.641Z,88.60
2018-03-20T02:39:45.207Z,87.50
2018-03-20T02:42:21.471Z,88.60
2018-03-20T02:44:55.284Z,90.50
2018-03-20T02:47:29.156Z,90.90
2018-03-20T02:50:04.489Z,91.80
2018-03-20T02:52:38.927Z,91.70
2018-03-20T02:55:13.576Z,92.10
2018-03-20T02:57:47.377Z,92.10
2018-03-20T03:00:23.313Z,92.10
2018-03-20T03:02:57.120Z,92.30
2018-03-20T03:05:32.633Z,92.40
2018-03-20T03:08:07.518Z,92.50
2018-03-20T03:10:44.811Z,92.90
2018-03-20T03:13:21.049Z,93.20
2018-03-20T03:15:54.789Z,93.70
2018-03-20T03:18:29.502Z,94.30
2018-03-20T03:21:03.084Z,94.70
2018-03-20T03:23:36.853Z,95.50
2018-03-20T03:26:10.669Z,96.10
2018-03-20T03:28:45.185Z,96.20
2018-03-20T03:31:18.779Z,96.50
2018-03-20T03:33:52.479Z,96.60
2018-03-20T03:36:26.183Z,96.70
2018-03-20T03:39:00.782Z,97.10
2018-03-20T03:41:36.090Z,97.00
2018-03-20T03:44:09.834Z,97.20
2018-03-20T03:46:46.276Z,97.30
2018-03-20T03:49:20.002Z,97.30
2018-03-20T03:51:54.197Z,97.30
2018-03-20T03:54:28.498Z,97.40
2018-03-20T03:57:02.173Z,97.40
2018-03-20T03:59:36.029Z,97.50
2018-03-20T04:02:10.563Z,97.50
2018-03-20T04:04:44.353Z,97.50
2018-03-20T04:07:20.633Z,97.40
2018-03-20T04:09:54.264Z,97.40
2018-03-20T04:12:27.954Z,97.40
2018-03-20T04:15:01.641Z,97.40
2018-03-20T04:17:35.564Z,97.20
2018-03-20T04:20:09.289Z,97.10
2018-03-20T04:22:43.061Z,97.00
2018-03-20T04:25:16.816Z,97.10
2018-03-20T04:27:50.624Z,97.10
2018-03-20T04:30:24.384Z,97.10
2018-03-20T04:32:58.152Z,97.30
2018-03-20T04:35:31.771Z,97.20
2018-03-20T04:38:05.550Z,97.30
2018-03-20T04:40:39.331Z,97.30
2018-03-20T04:43:13.833Z,97.20
2018-03-20T04:45:48.580Z,97.30
2018-03-20T04:48:22.421Z,97.30
2018-03-20T04:50:57.351Z,97.20
2018-03-20T04:53:31.136Z,97.30
2018-03-20T04:56:05.673Z,97.70
2018-03-20T04:58:39.363Z,97.70
2018-03-20T05:01:13.114Z,97.70
2018-03-20T05:03:46.861Z,97.80
2018-03-20T05:06:20.628Z,97.90
2018-03-20T05:08:54.339Z,98.00
2018-03-20T05:11:28.842Z,98.10
2018-03-20T05:14:03.976Z,98.20
2018-03-20T05:16:37.909Z,98.20
2018-03-20T05:19:26.496Z,98.10
2018-03-20T05:22:05.657Z,97.90
2018-03-20T05:24:39.667Z,98.00
2018-03-20T05:27:14.181Z,98.10
2018-03-20T05:29:47.919Z,98.10
2018-03-20T05:32:21.624Z,98.10
2018-03-20T05:34:57.376Z,98.10
2018-03-20T05:37:32.058Z,98.00
2018-03-20T05:40:05.768Z,98.00
2018-03-20T05:42:39.680Z,98.00
2018-03-20T05:45:13.669Z,97.90
2018-03-20T05:47:53.230Z,97.80
2018-03-20T05:50:32.559Z,97.90
2018-03-20T05:53:06.442Z,98.00
2018-03-20T05:55:40.815Z,98.30
2018-03-20T05:58:16.140Z,98.30
2018-03-20T06:00:54.970Z,98.40
2018-03-20T06:03:29.563Z,98.40
2018-03-20T06:06:05.072Z,98.50
2018-03-20T06:08:39.569Z,98.60
2018-03-20T06:11:14.810Z,98.60
2018-03-20T06:13:49.431Z,98.80
2018-03-20T06:16:23.151Z,98.80
2018-03-20T06:18:56.901Z,98.70
2018-03-20T06:21:31.200Z,98.70
2018-03-20T06:24:06.498Z,98.70
2018-03-20T06:26:41.153Z,98.70
2018-03-20T06:29:14.902Z,98.70
2018-03-20T06:31:48.728Z,98.70
2018-03-20T06:34:22.450Z,98.80
2018-03-20T06:36:57.073Z,98.90
2018-03-20T06:39:30.767Z,98.90
2018-03-20T06:42:05.428Z,98.90
2018-03-20T06:44:39.092Z,99.00
2018-03-20T06:47:13.820Z,99.10
2018-03-20T06:49:48.801Z,99.20
2018-03-20T06:52:23.394Z,99.10
2018-03-20T06:54:57.517Z,99.20
2018-03-20T06:57:31.217Z,99.20
2018-03-20T07:00:04.976Z,99.10
2018-03-20T07:02:38.782Z,99.10
2018-03-20T07:05:12.410Z,99.10
2018-03-20T07:07:46.416Z,99.00
2018-03-20T07:10:21.579Z,99.00
2018-03-20T07:12:55.897Z,98.90
2018-03-20T07:15:30.786Z,98.80
2018-03-20T07:18:04.341Z,98.80
2018-03-20T07:20:38.163Z,98.80
2018-03-20T07:23:12.116Z,98.60
2018-03-20T07:25:45.752Z,98.00
2018-03-20T07:28:19.667Z,97.90
2018-03-20T07:30:53.572Z,97.60
2018-03-20T07:33:27.507Z,97.40
2018-03-20T07:36:02.029Z,97.30
2018-03-20T07:38:35.917Z,97.20
2018-03-20T07:41:11.220Z,97.30
2018-03-20T07:43:45.038Z,97.20
2018-03-20T07:46:19.093Z,97.20
2018-03-20T07:48:52.683Z,96.50
2018-03-20T07:51:27.835Z,95.60
2018-03-20T07:54:01.686Z,95.10
2018-03-20T07:56:36.450Z,94.80
2018-03-20T07:59:11.630Z,94.20
2018-03-20T08:01:46.209Z,94.00
2018-03-20T08:04:20.381Z,93.80
2018-03-20T08:06:54.590Z,91.90
2018-03-20T08:09:28.284Z,92.30
2018-03-20T08:12:02.017Z,92.10
2018-03-20T08:14:35.655Z,91.60
2018-03-20T08:17:09.300Z,90.80
2018-03-20T08:19:43.184Z,90.30
2018-03-20T08:22:16.876Z,88.60
2018-03-20T08:24:50.672Z,85.50
2018-03-20T08:27:24.376Z,85.10
2018-03-20T08:29:58.237Z,82.70
2018-03-20T08:32:31.998Z,74.70
2018-03-20T08:35:06.047Z,76.40
2018-03-20T08:37:39.747Z,74.80
2018-03-20T08:40:15.221Z,74.30
2018-03-20T08:42:48.795Z,74.30
2018-03-20T08:45:22.633Z,78.00
2018-03-20T08:47:56.324Z,75.70
2018-03-20T08:50:31.110Z,72.30
2018-03-20T08:53:06.739Z,68.60
2018-03-20T08:55:43.933Z,68.50
2018-03-20T08:58:17.594Z,68.50
2018-03-20T09:00:51.388Z,67.10
2018-03-20T09:03:25.909Z,61.70
2018-03-20T09:05:59.685Z,61.70
2018-03-20T09:08:36.878Z,65.30
2018-03-20T09:11:10.837Z,59.70
2018-03-20T09:13:45.624Z,57.50
2018-03-20T09:16:19.263Z,57.40
2018-03-20T09:18:53.755Z,53.70
2018-03-20T09:21:27.559Z,53.70
2018-03-20T09:24:01.317Z,54.00
2018-03-20T09:26:35.482Z,54.40
2018-03-20T09:29:12.999Z,51.00
2018-03-20T09:31:49.363Z,49.30
2018-03-20T09:34:23.892Z,47.50
2018-03-20T09:36:58.290Z,48.10
2018-03-20T09:39:32.233Z,40.60
2018-03-20T09:42:07.061Z,35.20
2018-03-20T09:44:40.755Z,32.60
2018-03-20T09:47:15.887Z,27.10
2018-03-20T09:49:49.837Z,25.40
2018-03-20T09:52:24.534Z,22.80
2018-03-20T09:54:59.031Z,19.70
2018-03-20T09:57:34.671Z,21.30
2018-03-20T10:00:09.304Z,21.20
2018-03-20T10:02:43.398Z,20.90
2018-03-20T10:05:19.023Z,20.60
2018-03-20T10:07:54.065Z,18.30
2018-03-20T10:10:28.996Z,19.10
2018-03-20T10:13:07.546Z,19.00
2018-03-20T10:15:42.133Z,19.60
2018-03-20T10:18:18.549Z,19.50
2018-03-20T10:20:53.204Z,17.40
2018-03-20T10:23:27.234Z,16.10
2018-03-20T10:26:04.818Z,15.70
2018-03-20T10:28:43.014Z,14.60
2018-03-20T10:31:19.721Z,13.70
2018-03-20T10:33:58.080Z,13.30
2018-03-20T10:36:32.633Z,13.50
2018-03-20T10:39:09.367Z,12.10
2018-03-20T10:41:44.851Z,9.80
2018-03-20T10:44:19.816Z,10.50
2018-03-20T10:46:54.034Z,10.60
2018-03-20T10:49:27.710Z,9.00
2018-03-20T10:52:05.018Z,7.80
2018-03-20T10:54:42.087Z,7.80
2018-03-20T10:57:15.870Z,7.80
2018-03-20T10:59:57.461Z,7.90
2018-03-20T11:02:33.162Z,8.00
2018-03-20T11:05:07.746Z,7.00
2018-03-20T11:07:42.321Z,7.20
2018-03-20T11:10:17.232Z,7.20
2018-03-20T11:12:51.773Z,8.30
2018-03-20T11:15:26.066Z,7.60
2018-03-20T11:17:59.867Z,6.50
2018-03-20T11:20:35.581Z,5.40
2018-03-20T11:23:09.545Z,5.60
2018-03-20T11:25:46.045Z,5.60
2018-03-20T11:31:12.731Z,4.70
2018-03-20T11:33:49.703Z,3.20
2018-03-20T11:39:50.212Z,3.20
2018-03-20T11:42:25.058Z,2.40
2018-03-20T11:45:01.940Z,2.40
2018-03-20T11:47:40.678Z,2.30
2018-03-20T11:50:20.525Z,1.20
2018-03-20T11:55:40.043Z,2.40
2018-03-20T11:58:16.419Z,2.00
2018-03-20T12:00:53.785Z,2.40
2018-03-20T12:03:29.293Z,1.40
2018-03-20T12:06:04.541Z,1.00
2018-03-20T12:08:52.371Z,1.00
2018-03-20T12:11:28.158Z,1.00
2018-03-20T12:19:28.228Z,1.00
2018-03-20T12:22:03.831Z,1.00
2018-03-20T12:24:41.823Z,1.00
2018-03-20T12:27:25.631Z,1.00
2018-03-20T12:30:05.172Z,1.00
2018-03-20T12:32:40.183Z,1.00
2018-03-20T12:35:18.693Z,1.00
2018-03-20T12:37:55.877Z,1.00
2018-03-20T12:40:33.883Z,1.00
2018-03-20T12:43:08.718Z,1.00
2018-03-20T12:45:54.596Z,1.00
2018-03-20T12:48:34.549Z,1.00
2018-03-20T12:51:10.196Z,1.00
2018-03-20T12:53:44.225Z,1.00
2018-03-20T12:56:24.077Z,1.00
2018-03-20T12:59:00.240Z,1.00
2018-03-20T13:01:34.745Z,1.00
2018-03-20T13:04:10.598Z,1.00
2018-03-20T13:06:44.241Z,1.00
2018-03-20T13:09:20.441Z,1.00
2018-03-20T13:11:56.030Z,1.00
2018-03-20T13:14:30.681Z,1.00
2018-03-20T13:17:05.473Z,1.00
2018-03-20T13:19:42.019Z,1.00
2018-03-20T13:22:15.593Z,1.00
2018-03-20T13:24:49.952Z,1.00
2018-03-20T13:27:25.532Z,1.00
2018-03-20T13:30:00.658Z,1.00
2018-03-20T13:32:34.972Z,1.00
2018-03-20T13:35:08.989Z,1.00
2018-03-20T13:37:42.558Z,1.00
2018-03-20T13:40:17.645Z,1.00
2018-03-20T13:42:52.736Z,1.00
2018-03-20T13:45:28.070Z,1.00
2018-03-20T13:48:01.985Z,1.00
2018-03-20T13:50:37.788Z,1.00
2018-03-20T13:53:21.750Z,1.00
2018-03-20T13:55:57.313Z,1.00
2018-03-20T13:58:32.858Z,1.00
2018-03-20T14:01:07.442Z,1.00
2018-03-20T14:03:42.706Z,1.00
2018-03-20T14:06:19.180Z,1.00
2018-03-20T14:09:00.523Z,1.00
2018-03-20T14:11:36.770Z,1.00
2018-03-20T14:14:14.009Z,1.00
2018-03-20T14:16:48.740Z,1.00
2018-03-20T14:19:25.258Z,1.00
2018-03-20T14:22:01.704Z,1.00
2018-03-20T14:24:37.733Z,1.00
2018-03-20T14:27:12.980Z,1.00
2018-03-20T14:29:46.628Z,1.00
2018-03-20T14:32:20.437Z,1.00
2018-03-20T14:34:56.476Z,1.00
2018-03-20T14:37:31.964Z,1.00
2018-03-20T14:40:06.146Z,1.00
2018-03-20T14:42:41.247Z,1.00
2018-03-20T14:45:16.610Z,1.00
2018-03-20T14:47:50.926Z,1.00
2018-03-20T14:50:26.262Z,1.00
2018-03-20T14:53:04.815Z,1.00
2018-03-20T14:55:39.413Z,1.00
2018-03-20T14:58:13.977Z,1.00
2018-03-20T15:00:48.339Z,1.00
2018-03-20T15:03:23.446Z,1.00
2018-03-20T15:05:59.158Z,1.00
2018-03-20T15:08:32.966Z,1.00
2018-03-20T15:11:07.426Z,1.00
2018-03-20T15:13:41.275Z,1.00
2018-03-20T15:16:15.293Z,1.00
2018-03-20T15:18:50.007Z,1.00
2018-03-20T15:21:24.186Z,1.00
2018-03-20T15:23:59.757Z,1.00
2018-03-20T15:26:33.444Z,1.00
2018-03-20T15:29:08.667Z,1.00
2018-03-20T15:31:43.908Z,1.00
2018-03-20T15:34:18.344Z,1.00
2018-03-20T15:36:55.182Z,1.00
2018-03-20T15:39:28.755Z,1.00
2018-03-20T15:42:03.854Z,1.00
2018-03-20T15:44:38.301Z,1.00
2018-03-20T15:47:12.047Z,1.00
2018-03-20T15:49:45.697Z,1.00
2018-03-20T15:52:19.406Z,1.00
2018-03-20T15:54:53.974Z,1.00
2018-03-20T15:57:28.036Z,1.00
2018-03-20T16:00:01.820Z,1.00
2018-03-20T16:02:35.751Z,1.00
2018-03-20T16:05:09.549Z,1.00
2018-03-20T16:07:45.776Z,1.00
2018-03-20T16:10:21.800Z,1.00
2018-03-20T16:12:55.741Z,1.00
2018-03-20T16:15:29.369Z,1.00
2018-03-20T16:18:03.072Z,1.00
2018-03-20T16:20:40.752Z,1.00
2018-03-20T16:23:16.831Z,1.00
2018-03-20T16:25:52.265Z,1.00
2018-03-20T16:28:30.100Z,1.00
2018-03-20T16:31:03.787Z,1.00
2018-03-20T16:33:37.888Z,1.00
2018-03-20T16:36:14.558Z,1.00
2018-03-20T16:38:50.548Z,1.00
2018-03-20T16:41:29.508Z,1.00
2018-03-20T16:44:04.887Z,1.00
2018-03-20T16:46:38.939Z,1.00
2018-03-20T16:49:13.852Z,1.00
2018-03-20T16:51:48.012Z,1.00
2018-03-20T16:54:26.513Z,1.00
2018-03-20T16:57:01.335Z,1.00
2018-03-20T16:59:36.028Z,1.00
2018-03-20T17:02:09.733Z,1.00
2018-03-20T17:04:45.223Z,1.00
2018-03-20T17:07:19.280Z,1.00
2018-03-20T17:09:53.101Z,1.00
2018-03-20T17:12:26.778Z,1.00
2018-03-20T17:15:01.504Z,1.00
2018-03-20T17:17:35.129Z,1.00
2018-03-20T17:20:09.070Z,1.00
2018-03-20T17:22:43.428Z,1.00
2018-03-20T17:25:18.140Z,1.00
2018-03-20T17:27:52.083Z,1.00
2018-03-20T17:30:26.620Z,1.00
2018-03-20T17:33:00.500Z,1.00
2018-03-20T17:35:36.743Z,1.00
2018-03-20T17:38:10.958Z,1.00
2018-03-20T17:40:45.963Z,1.00
2018-03-20T17:43:20.823Z,1.00
2018-03-20T17:45:56.586Z,1.00
2018-03-20T17:48:30.689Z,1.00
2018-03-20T17:51:04.700Z,1.00
2018-03-20T17:56:17.034Z,1.00
2018-03-20T17:58:50.793Z,1.00
2018-03-20T18:01:25.161Z,1.00
2018-03-20T18:03:59.391Z,1.00
2018-03-20T18:06:33.935Z,1.00
2018-03-20T18:09:08.454Z,1.00
2018-03-20T18:11:44.936Z,1.00
2018-03-20T18:14:22.416Z,1.00
2018-03-20T18:16:58.924Z,1.00
2018-03-20T18:19:39.266Z,1.00
2018-03-20T18:22:15.156Z,1.00
2018-03-20T18:24:50.962Z,1.00
2018-03-20T18:27:27.771Z,1.00
2018-03-20T18:30:05.745Z,1.00
2018-03-20T18:32:40.913Z,1.00
2018-03-20T18:35:17.017Z,1.00
2018-03-20T18:37:53.959Z,1.00
2018-03-20T18:40:28.492Z,1.00
2018-03-20T18:43:06.632Z,1.00
2018-03-20T18:45:44.074Z,1.00
2018-03-20T18:48:20.489Z,1.00
2018-03-20T18:50:55.032Z,1.00
2018-03-20T18:56:09.612Z,1.20
2018-03-20T18:58:43.529Z,1.20
2018-03-20T19:01:27.734Z,1.20
2018-03-20T19:04:03.584Z,1.30
2018-03-20T19:06:37.337Z,1.40
2018-03-20T19:09:14.748Z,1.60
2018-03-20T19:11:52.110Z,1.80
2018-03-20T19:14:28.092Z,1.90
2018-03-20T19:17:04.901Z,2.00
2018-03-20T19:19:41.105Z,2.10
2018-03-20T19:22:18.784Z,2.40
2018-03-20T19:25:00.085Z,2.30
2018-03-20T19:27:44.061Z,2.80
2018-03-20T19:30:19.986Z,3.10
2018-03-20T19:32:58.038Z,3.10
2018-03-20T19:35:35.241Z,3.20
2018-03-20T19:38:25.727Z,3.00
2018-03-20T19:41:02.791Z,3.40
2018-03-20T19:43:38.696Z,3.70
2018-03-20T19:46:14.359Z,3.90
2018-03-20T19:48:52.708Z,4.30
2018-03-20T19:54:12.133Z,5.00
2018-03-20T19:56:48.892Z,4.80
2018-03-20T19:59:23.395Z,4.80
2018-03-20T20:01:57.610Z,5.30
2018-03-20T20:04:33.450Z,5.10
2018-03-20T20:07:08.394Z,5.60
2018-03-20T20:09:46.137Z,5.60
2018-03-20T20:14:59.134Z,5.40
2018-03-20T20:17:35.714Z,6.10
2018-03-20T20:20:12.848Z,6.10
2018-03-20T20:22:48.263Z,6.10
2018-03-20T20:25:24.257Z,6.50
2018-03-20T20:27:58.801Z,6.40
2018-03-20T20:30:32.583Z,6.30
2018-03-20T20:33:08.597Z,6.70
2018-03-20T20:35:44.305Z,6.80
2018-03-20T20:38:19.979Z,6.90
2018-03-20T20:40:55.836Z,6.60
2018-03-20T20:43:31.473Z,7.00
2018-03-20T20:46:05.240Z,7.10
2018-03-20T20:48:39.614Z,7.40
2018-03-20T20:51:15.064Z,7.50
2018-03-20T20:53:49.664Z,7.70
2018-03-20T20:56:27.638Z,7.90
2018-03-20T20:59:03.115Z,7.80
2018-03-20T21:01:38.093Z,8.00
2018-03-20T21:04:13.856Z,8.30
2018-03-20T21:06:48.689Z,8.80
2018-03-20T21:09:27.183Z,8.80
2018-03-20T21:12:03.549Z,9.00
2018-03-20T21:14:38.122Z,9.20
2018-03-20T21:17:12.441Z,9.70
2018-03-20T21:19:46.154Z,9.60
2018-03-20T21:25:10.953Z,10.30
2018-03-20T21:27:47.329Z,10.60
2018-03-20T21:30:22.668Z,10.90
2018-03-20T21:32:57.743Z,11.20
2018-03-20T21:35:32.394Z,11.60
2018-03-20T21:38:07.859Z,11.50
2018-03-20T21:40:42.915Z,12.00
2018-03-20T21:43:16.733Z,12.00
2018-03-20T21:48:37.086Z,12.10
2018-03-20T21:51:12.278Z,11.30
2018-03-20T21:53:47.772Z,11.40
2018-03-20T21:56:24.783Z,12.10
2018-03-20T21:58:59.369Z,12.20
2018-03-20T22:01:36.588Z,11.20
2018-03-20T22:04:11.597Z,11.50
2018-03-20T22:06:45.358Z,11.80
2018-03-20T22:09:20.533Z,12.10
2018-03-20T22:11:54.681Z,12.10
2018-03-20T22:14:28.660Z,12.10
2018-03-20T22:17:05.536Z,12.10
2018-03-20T22:19:39.115Z,12.20
2018-03-20T22:22:15.604Z,12.10
2018-03-20T22:24:50.755Z,12.10
2018-03-20T22:27:26.103Z,12.60
2018-03-20T22:30:00.736Z,12.60
2018-03-20T22:32:35.565Z,13.30
2018-03-20T22:35:09.290Z,13.30
2018-03-20T22:37:44.300Z,14.10
2018-03-20T22:40:19.594Z,14.10
2018-03-20T22:42:54.067Z,14.20
2018-03-20T22:45:29.482Z,14.60
2018-03-20T22:48:04.149Z,14.00
2018-03-20T22:50:39.513Z,13.80
2018-03-20T22:53:15.709Z,14.00
2018-03-20T22:55:51.929Z,14.50
2018-03-20T22:58:32.770Z,14.50
2018-03-20T23:01:06.482Z,14.40
2018-03-20T23:03:43.255Z,15.20
2018-03-20T23:06:19.764Z,15.20
2018-03-20T23:08:56.433Z,15.60
2018-03-20T23:11:30.661Z,16.20
2018-03-20T23:14:06.191Z,16.50
2018-03-20T23:16:40.038Z,16.90
2018-03-20T23:19:15.159Z,17.40
2018-03-20T23:21:49.363Z,18.00
2018-03-20T23:24:23.598Z,18.80
2018-03-20T23:26:59.815Z,18.70
2018-03-20T23:29:37.019Z,19.20
2018-03-20T23:32:11.752Z,20.40
2018-03-20T23:34:47.152Z,21.10
2018-03-20T23:37:22.956Z,21.80
2018-03-20T23:39:57.465Z,23.00
2018-03-20T23:42:34.271Z,23.00
2018-03-20T23:45:10.242Z,23.40
2018-03-20T23:47:46.720Z,23.80
2018-03-20T23:50:21.860Z,24.90
2018-03-20T23:52:59.242Z,25.00
2018-03-20T23:55:34.350Z,25.00
2018-03-20T23:58:08.508Z,24.60
